sensor_id;sensor_type;location;lat;lon;timestamp;temperature;humidity
76936;DHT22;65881;52.438;16.744;2023-05-02T00:01:57;10.00;60.70
76936;DHT22;65881;52.438;16.744;2023-05-02T00:04:24;10.00;61.90
76936;DHT22;65881;52.438;16.744;2023-05-02T00:06:53;9.90;62.60
76936;DHT22;65881;52.438;16.744;2023-05-02T00:09:19;9.80;63.30
76936;DHT22;65881;52.438;16.744;2023-05-02T00:11:45;9.80;64.80
76936;DHT22;65881;52.438;16.744;2023-05-02T00:14:10;9.70;64.40
76936;DHT22;65881;52.438;16.744;2023-05-02T00:16:37;9.60;65.10
76936;DHT22;65881;52.438;16.744;2023-05-02T00:19:03;9.60;65.70
76936;DHT22;65881;52.438;16.744;2023-05-02T00:21:29;9.50;65.20
76936;DHT22;65881;52.438;16.744;2023-05-02T00:23:55;9.50;65.70
76936;DHT22;65881;52.438;16.744;2023-05-02T00:26:29;9.60;65.00
76936;DHT22;65881;52.438;16.744;2023-05-02T00:28:56;9.60;66.10
76936;DHT22;65881;52.438;16.744;2023-05-02T00:31:25;9.70;65.00
76936;DHT22;65881;52.438;16.744;2023-05-02T00:33:50;9.60;65.20
76936;DHT22;65881;52.438;16.744;2023-05-02T00:36:17;9.60;65.30
76936;DHT22;65881;52.438;16.744;2023-05-02T00:38:43;9.60;65.00
76936;DHT22;65881;52.438;16.744;2023-05-02T00:41:09;9.60;66.00
76936;DHT22;65881;52.438;16.744;2023-05-02T00:43:36;9.70;65.50
76936;DHT22;65881;52.438;16.744;2023-05-02T00:46:04;9.70;65.00
76936;DHT22;65881;52.438;16.744;2023-05-02T00:48:31;9.70;64.70
76936;DHT22;65881;52.438;16.744;2023-05-02T00:50:57;9.80;64.60
76936;DHT22;65881;52.438;16.744;2023-05-02T00:53:23;9.80;64.50
76936;DHT22;65881;52.438;16.744;2023-05-02T00:55:49;9.80;64.70
76936;DHT22;65881;52.438;16.744;2023-05-02T00:58:16;9.80;64.70
76936;DHT22;65881;52.438;16.744;2023-05-02T01:03:35;9.90;65.00
76936;DHT22;65881;52.438;16.744;2023-05-02T01:08:42;9.80;65.80
76936;DHT22;65881;52.438;16.744;2023-05-02T01:11:14;9.80;66.00
76936;DHT22;65881;52.438;16.744;2023-05-02T01:13:42;9.80;66.40
76936;DHT22;65881;52.438;16.744;2023-05-02T01:16:13;9.80;66.10
76936;DHT22;65881;52.438;16.744;2023-05-02T01:18:41;9.80;66.50
76936;DHT22;65881;52.438;16.744;2023-05-02T01:21:08;9.80;67.20
76936;DHT22;65881;52.438;16.744;2023-05-02T01:23:56;9.80;67.20
76936;DHT22;65881;52.438;16.744;2023-05-02T01:29:26;9.70;68.00
76936;DHT22;65881;52.438;16.744;2023-05-02T01:31:55;9.70;68.70
76936;DHT22;65881;52.438;16.744;2023-05-02T01:34:23;9.70;68.90
76936;DHT22;65881;52.438;16.744;2023-05-02T01:36:53;9.70;69.70
76936;DHT22;65881;52.438;16.744;2023-05-02T01:39:23;9.80;70.00
76936;DHT22;65881;52.438;16.744;2023-05-02T01:41:52;9.80;69.90
76936;DHT22;65881;52.438;16.744;2023-05-02T01:44:21;9.80;70.10
76936;DHT22;65881;52.438;16.744;2023-05-02T01:46:48;9.80;70.10
76936;DHT22;65881;52.438;16.744;2023-05-02T01:49:15;9.80;70.60
76936;DHT22;65881;52.438;16.744;2023-05-02T01:51:47;9.90;71.30
76936;DHT22;65881;52.438;16.744;2023-05-02T01:54:15;9.80;71.30
76936;DHT22;65881;52.438;16.744;2023-05-02T01:56:42;9.80;71.50
76936;DHT22;65881;52.438;16.744;2023-05-02T01:59:11;9.80;72.80
76936;DHT22;65881;52.438;16.744;2023-05-02T02:01:38;9.80;72.40
76936;DHT22;65881;52.438;16.744;2023-05-02T02:04:06;9.80;72.10
76936;DHT22;65881;52.438;16.744;2023-05-02T02:06:33;9.80;71.90
76936;DHT22;65881;52.438;16.744;2023-05-02T02:08:59;9.80;71.70
76936;DHT22;65881;52.438;16.744;2023-05-02T02:11:35;9.90;71.60
76936;DHT22;65881;52.438;16.744;2023-05-02T02:14:13;10.00;71.90
76936;DHT22;65881;52.438;16.744;2023-05-02T02:16:41;10.00;72.30
76936;DHT22;65881;52.438;16.744;2023-05-02T02:19:11;10.00;72.20
76936;DHT22;65881;52.438;16.744;2023-05-02T02:21:38;10.20;71.40
76936;DHT22;65881;52.438;16.744;2023-05-02T02:24:06;10.30;71.00
76936;DHT22;65881;52.438;16.744;2023-05-02T02:26:32;10.30;71.10
76936;DHT22;65881;52.438;16.744;2023-05-02T02:28:59;10.40;71.10
76936;DHT22;65881;52.438;16.744;2023-05-02T02:31:35;10.40;71.50
76936;DHT22;65881;52.438;16.744;2023-05-02T02:34:03;10.40;71.00
76936;DHT22;65881;52.438;16.744;2023-05-02T02:36:59;10.40;71.20
76936;DHT22;65881;52.438;16.744;2023-05-02T02:42:06;10.50;71.00
76936;DHT22;65881;52.438;16.744;2023-05-02T02:44:46;10.60;71.10
76936;DHT22;65881;52.438;16.744;2023-05-02T02:47:41;10.50;71.50
76936;DHT22;65881;52.438;16.744;2023-05-02T02:52:57;10.50;71.80
76936;DHT22;65881;52.438;16.744;2023-05-02T02:55:56;10.50;72.20
76936;DHT22;65881;52.438;16.744;2023-05-02T03:01:04;10.50;72.70
76936;DHT22;65881;52.438;16.744;2023-05-02T03:03:31;10.40;72.70
76936;DHT22;65881;52.438;16.744;2023-05-02T03:05:59;10.50;73.00
76936;DHT22;65881;52.438;16.744;2023-05-02T03:08:25;10.40;73.20
76936;DHT22;65881;52.438;16.744;2023-05-02T03:10:51;10.50;72.70
76936;DHT22;65881;52.438;16.744;2023-05-02T03:13:17;10.50;72.80
76936;DHT22;65881;52.438;16.744;2023-05-02T03:18:39;10.50;72.50
76936;DHT22;65881;52.438;16.744;2023-05-02T03:21:05;10.50;72.50
76936;DHT22;65881;52.438;16.744;2023-05-02T03:23:31;10.50;72.30
76936;DHT22;65881;52.438;16.744;2023-05-02T03:25:56;10.50;72.50
76936;DHT22;65881;52.438;16.744;2023-05-02T03:28:22;10.50;72.60
76936;DHT22;65881;52.438;16.744;2023-05-02T03:30:48;10.50;72.50
76936;DHT22;65881;52.438;16.744;2023-05-02T03:33:13;10.40;73.00
76936;DHT22;65881;52.438;16.744;2023-05-02T03:35:42;10.40;73.00
76936;DHT22;65881;52.438;16.744;2023-05-02T03:38:08;10.50;73.30
76936;DHT22;65881;52.438;16.744;2023-05-02T03:40:33;10.50;73.20
76936;DHT22;65881;52.438;16.744;2023-05-02T03:42:59;10.50;73.40
76936;DHT22;65881;52.438;16.744;2023-05-02T03:45:25;10.50;73.60
76936;DHT22;65881;52.438;16.744;2023-05-02T03:47:50;10.50;73.60
76936;DHT22;65881;52.438;16.744;2023-05-02T03:50:16;10.50;73.30
76936;DHT22;65881;52.438;16.744;2023-05-02T03:52:42;10.60;73.00
76936;DHT22;65881;52.438;16.744;2023-05-02T03:55:08;10.60;72.80
76936;DHT22;65881;52.438;16.744;2023-05-02T03:57:35;10.50;72.20
76936;DHT22;65881;52.438;16.744;2023-05-02T04:00:07;10.50;71.70
76936;DHT22;65881;52.438;16.744;2023-05-02T04:02:33;10.40;71.20
76936;DHT22;65881;52.438;16.744;2023-05-02T04:04:58;10.40;69.90
76936;DHT22;65881;52.438;16.744;2023-05-02T04:07:24;10.40;68.80
76936;DHT22;65881;52.438;16.744;2023-05-02T04:09:50;10.50;68.90
76936;DHT22;65881;52.438;16.744;2023-05-02T04:12:16;10.50;68.90
76936;DHT22;65881;52.438;16.744;2023-05-02T04:14:42;10.50;70.00
76936;DHT22;65881;52.438;16.744;2023-05-02T04:17:10;10.50;70.50
76936;DHT22;65881;52.438;16.744;2023-05-02T04:19:36;10.40;70.90
76936;DHT22;65881;52.438;16.744;2023-05-02T04:22:02;10.50;70.30
76936;DHT22;65881;52.438;16.744;2023-05-02T04:24:28;10.50;71.10
76936;DHT22;65881;52.438;16.744;2023-05-02T04:26:53;10.50;71.20
76936;DHT22;65881;52.438;16.744;2023-05-02T04:29:27;10.40;71.20
76936;DHT22;65881;52.438;16.744;2023-05-02T04:31:59;10.40;71.00
76936;DHT22;65881;52.438;16.744;2023-05-02T04:34:25;10.40;71.50
76936;DHT22;65881;52.438;16.744;2023-05-02T04:36:52;10.40;70.00
76936;DHT22;65881;52.438;16.744;2023-05-02T04:39:17;10.50;70.90
76936;DHT22;65881;52.438;16.744;2023-05-02T04:41:43;10.50;72.30
76936;DHT22;65881;52.438;16.744;2023-05-02T04:44:09;10.50;73.30
76936;DHT22;65881;52.438;16.744;2023-05-02T04:46:34;10.50;77.20
76936;DHT22;65881;52.438;16.744;2023-05-02T04:49:00;10.50;78.50
76936;DHT22;65881;52.438;16.744;2023-05-02T04:51:26;10.40;78.10
76936;DHT22;65881;52.438;16.744;2023-05-02T04:53:53;10.30;78.40
76936;DHT22;65881;52.438;16.744;2023-05-02T04:56:19;10.20;77.50
76936;DHT22;65881;52.438;16.744;2023-05-02T04:58:44;10.20;78.30
76936;DHT22;65881;52.438;16.744;2023-05-02T05:01:10;10.10;79.60
76936;DHT22;65881;52.438;16.744;2023-05-02T05:03:36;10.00;79.00
76936;DHT22;65881;52.438;16.744;2023-05-02T05:06:01;10.00;79.20
76936;DHT22;65881;52.438;16.744;2023-05-02T05:08:27;10.00;80.70
76936;DHT22;65881;52.438;16.744;2023-05-02T05:10:53;10.00;81.60
76936;DHT22;65881;52.438;16.744;2023-05-02T05:13:18;10.00;83.00
76936;DHT22;65881;52.438;16.744;2023-05-02T05:15:44;10.00;82.60
76936;DHT22;65881;52.438;16.744;2023-05-02T05:18:10;10.00;83.10
76936;DHT22;65881;52.438;16.744;2023-05-02T05:20:35;10.00;83.20
76936;DHT22;65881;52.438;16.744;2023-05-02T05:23:01;10.00;84.00
76936;DHT22;65881;52.438;16.744;2023-05-02T05:25:27;10.10;84.70
76936;DHT22;65881;52.438;16.744;2023-05-02T05:27:53;10.10;82.90
76936;DHT22;65881;52.438;16.744;2023-05-02T05:30:22;10.20;83.00
76936;DHT22;65881;52.438;16.744;2023-05-02T05:32:47;10.20;85.50
76936;DHT22;65881;52.438;16.744;2023-05-02T05:35:13;10.20;85.80
76936;DHT22;65881;52.438;16.744;2023-05-02T05:37:39;10.30;84.70
76936;DHT22;65881;52.438;16.744;2023-05-02T05:40:08;10.40;82.70
76936;DHT22;65881;52.438;16.744;2023-05-02T05:42:34;10.50;82.40
76936;DHT22;65881;52.438;16.744;2023-05-02T05:44:59;10.60;83.30
76936;DHT22;65881;52.438;16.744;2023-05-02T05:47:25;10.80;83.20
76936;DHT22;65881;52.438;16.744;2023-05-02T05:49:55;10.90;84.00
76936;DHT22;65881;52.438;16.744;2023-05-02T05:52:21;10.90;83.30
76936;DHT22;65881;52.438;16.744;2023-05-02T05:54:47;11.00;83.20
76936;DHT22;65881;52.438;16.744;2023-05-02T05:57:12;11.00;83.40
76936;DHT22;65881;52.438;16.744;2023-05-02T05:59:38;11.10;82.80
76936;DHT22;65881;52.438;16.744;2023-05-02T06:02:04;11.30;82.40
76936;DHT22;65881;52.438;16.744;2023-05-02T06:04:30;11.40;80.70
76936;DHT22;65881;52.438;16.744;2023-05-02T06:06:55;11.50;80.80
76936;DHT22;65881;52.438;16.744;2023-05-02T06:09:21;11.50;80.90
76936;DHT22;65881;52.438;16.744;2023-05-02T06:11:47;11.70;79.50
76936;DHT22;65881;52.438;16.744;2023-05-02T06:14:13;11.70;80.50
76936;DHT22;65881;52.438;16.744;2023-05-02T06:16:39;11.70;79.60
76936;DHT22;65881;52.438;16.744;2023-05-02T06:19:04;11.90;81.10
76936;DHT22;65881;52.438;16.744;2023-05-02T06:21:30;11.90;80.80
76936;DHT22;65881;52.438;16.744;2023-05-02T06:23:56;12.10;80.30
76936;DHT22;65881;52.438;16.744;2023-05-02T06:26:22;12.10;80.00
76936;DHT22;65881;52.438;16.744;2023-05-02T06:28:48;12.30;79.60
76936;DHT22;65881;52.438;16.744;2023-05-02T06:31:13;12.50;77.60
76936;DHT22;65881;52.438;16.744;2023-05-02T06:33:40;12.50;76.20
76936;DHT22;65881;52.438;16.744;2023-05-02T06:36:07;12.50;75.40
76936;DHT22;65881;52.438;16.744;2023-05-02T06:38:36;12.50;76.40
76936;DHT22;65881;52.438;16.744;2023-05-02T06:41:02;12.70;75.90
76936;DHT22;65881;52.438;16.744;2023-05-02T06:43:28;12.70;74.80
76936;DHT22;65881;52.438;16.744;2023-05-02T06:45:56;12.80;74.70
76936;DHT22;65881;52.438;16.744;2023-05-02T06:48:23;12.90;73.70
76936;DHT22;65881;52.438;16.744;2023-05-02T06:50:50;13.00;73.80
76936;DHT22;65881;52.438;16.744;2023-05-02T06:53:16;13.20;71.90
76936;DHT22;65881;52.438;16.744;2023-05-02T06:55:43;13.30;70.80
76936;DHT22;65881;52.438;16.744;2023-05-02T06:58:09;13.50;71.80
76936;DHT22;65881;52.438;16.744;2023-05-02T07:00:35;13.50;71.10
76936;DHT22;65881;52.438;16.744;2023-05-02T07:03:01;13.50;71.60
76936;DHT22;65881;52.438;16.744;2023-05-02T07:05:28;13.50;72.30
76936;DHT22;65881;52.438;16.744;2023-05-02T07:07:54;13.50;71.80
76936;DHT22;65881;52.438;16.744;2023-05-02T07:10:19;13.50;71.40
76936;DHT22;65881;52.438;16.744;2023-05-02T07:12:45;13.60;68.70
76936;DHT22;65881;52.438;16.744;2023-05-02T07:15:17;13.60;69.10
76936;DHT22;65881;52.438;16.744;2023-05-02T07:17:43;13.60;68.10
76936;DHT22;65881;52.438;16.744;2023-05-02T07:20:09;13.60;68.10
76936;DHT22;65881;52.438;16.744;2023-05-02T07:22:36;13.80;68.10
76936;DHT22;65881;52.438;16.744;2023-05-02T07:25:02;14.00;67.20
76936;DHT22;65881;52.438;16.744;2023-05-02T07:27:30;14.10;65.70
76936;DHT22;65881;52.438;16.744;2023-05-02T07:29:56;14.00;66.20
76936;DHT22;65881;52.438;16.744;2023-05-02T07:32:22;14.10;66.30
76936;DHT22;65881;52.438;16.744;2023-05-02T07:34:50;14.40;65.00
76936;DHT22;65881;52.438;16.744;2023-05-02T07:37:19;14.50;65.90
76936;DHT22;65881;52.438;16.744;2023-05-02T07:39:48;14.60;64.50
76936;DHT22;65881;52.438;16.744;2023-05-02T07:42:17;14.70;65.50
76936;DHT22;65881;52.438;16.744;2023-05-02T07:44:43;14.70;66.10
76936;DHT22;65881;52.438;16.744;2023-05-02T07:47:08;14.70;67.60
76936;DHT22;65881;52.438;16.744;2023-05-02T07:49:34;14.90;65.50
76936;DHT22;65881;52.438;16.744;2023-05-02T07:52:19;15.00;62.00
76936;DHT22;65881;52.438;16.744;2023-05-02T07:54:46;15.00;63.80
76936;DHT22;65881;52.438;16.744;2023-05-02T07:57:24;15.00;63.40
76936;DHT22;65881;52.438;16.744;2023-05-02T07:59:50;15.00;63.90
76936;DHT22;65881;52.438;16.744;2023-05-02T08:02:16;15.00;63.70
76936;DHT22;65881;52.438;16.744;2023-05-02T08:04:45;15.00;64.40
76936;DHT22;65881;52.438;16.744;2023-05-02T08:07:11;15.00;64.70
76936;DHT22;65881;52.438;16.744;2023-05-02T08:09:37;15.00;63.70
76936;DHT22;65881;52.438;16.744;2023-05-02T08:12:03;15.00;63.10
76936;DHT22;65881;52.438;16.744;2023-05-02T08:14:29;14.90;63.20
76936;DHT22;65881;52.438;16.744;2023-05-02T08:16:56;15.00;63.80
76936;DHT22;65881;52.438;16.744;2023-05-02T08:19:22;15.20;63.70
76936;DHT22;65881;52.438;16.744;2023-05-02T08:21:48;15.30;63.70
76936;DHT22;65881;52.438;16.744;2023-05-02T08:24:13;15.50;62.90
76936;DHT22;65881;52.438;16.744;2023-05-02T08:29:35;15.80;60.20
76936;DHT22;65881;52.438;16.744;2023-05-02T08:32:01;16.00;59.40
76936;DHT22;65881;52.438;16.744;2023-05-02T08:34:26;16.00;59.40
76936;DHT22;65881;52.438;16.744;2023-05-02T08:36:57;16.10;59.10
76936;DHT22;65881;52.438;16.744;2023-05-02T08:39:22;16.30;57.80
76936;DHT22;65881;52.438;16.744;2023-05-02T08:41:48;16.50;56.90
76936;DHT22;65881;52.438;16.744;2023-05-02T08:44:14;16.70;56.70
76936;DHT22;65881;52.438;16.744;2023-05-02T08:46:40;17.00;55.80
76936;DHT22;65881;52.438;16.744;2023-05-02T08:49:10;17.30;54.80
76936;DHT22;65881;52.438;16.744;2023-05-02T08:51:36;17.50;54.10
76936;DHT22;65881;52.438;16.744;2023-05-02T08:54:03;17.20;53.80
76936;DHT22;65881;52.438;16.744;2023-05-02T08:56:34;17.20;55.40
76936;DHT22;65881;52.438;16.744;2023-05-02T08:58:59;17.40;53.10
76936;DHT22;65881;52.438;16.744;2023-05-02T09:01:29;17.40;53.00
76936;DHT22;65881;52.438;16.744;2023-05-02T09:04:08;17.50;52.70
76936;DHT22;65881;52.438;16.744;2023-05-02T09:06:36;18.00;50.20
76936;DHT22;65881;52.438;16.744;2023-05-02T09:09:08;18.20;49.10
76936;DHT22;65881;52.438;16.744;2023-05-02T09:11:37;18.40;49.80
76936;DHT22;65881;52.438;16.744;2023-05-02T09:14:14;18.70;50.40
76936;DHT22;65881;52.438;16.744;2023-05-02T09:16:40;18.70;47.30
76936;DHT22;65881;52.438;16.744;2023-05-02T09:19:05;18.90;45.50
76936;DHT22;65881;52.438;16.744;2023-05-02T09:21:37;19.00;45.10
76936;DHT22;65881;52.438;16.744;2023-05-02T09:24:15;18.80;46.30
76936;DHT22;65881;52.438;16.744;2023-05-02T09:26:43;18.90;45.80
76936;DHT22;65881;52.438;16.744;2023-05-02T09:29:20;18.70;48.40
76936;DHT22;65881;52.438;16.744;2023-05-02T09:31:46;18.90;46.50
76936;DHT22;65881;52.438;16.744;2023-05-02T09:34:15;18.90;46.20
76936;DHT22;65881;52.438;16.744;2023-05-02T09:36:46;19.00;44.90
76936;DHT22;65881;52.438;16.744;2023-05-02T09:39:14;19.40;43.30
76936;DHT22;65881;52.438;16.744;2023-05-02T09:41:40;19.50;43.20
76936;DHT22;65881;52.438;16.744;2023-05-02T09:44:10;19.70;42.50
76936;DHT22;65881;52.438;16.744;2023-05-02T09:46:41;19.50;43.00
76936;DHT22;65881;52.438;16.744;2023-05-02T09:49:07;19.40;43.60
76936;DHT22;65881;52.438;16.744;2023-05-02T09:51:36;19.20;42.50
76936;DHT22;65881;52.438;16.744;2023-05-02T09:54:02;19.60;41.80
76936;DHT22;65881;52.438;16.744;2023-05-02T09:56:28;19.60;42.90
76936;DHT22;65881;52.438;16.744;2023-05-02T09:59:18;19.80;43.00
76936;DHT22;65881;52.438;16.744;2023-05-02T10:01:55;19.70;43.90
76936;DHT22;65881;52.438;16.744;2023-05-02T10:04:22;19.30;44.30
76936;DHT22;65881;52.438;16.744;2023-05-02T10:06:50;19.70;43.10
76936;DHT22;65881;52.438;16.744;2023-05-02T10:09:18;19.90;42.80
76936;DHT22;65881;52.438;16.744;2023-05-02T10:11:45;20.00;43.30
76936;DHT22;65881;52.438;16.744;2023-05-02T10:14:11;19.90;43.60
76936;DHT22;65881;52.438;16.744;2023-05-02T10:17:30;20.10;42.70
76936;DHT22;65881;52.438;16.744;2023-05-02T10:20:03;20.10;42.70
76936;DHT22;65881;52.438;16.744;2023-05-02T10:22:30;20.50;43.00
76936;DHT22;65881;52.438;16.744;2023-05-02T10:24:57;20.50;41.70
76936;DHT22;65881;52.438;16.744;2023-05-02T10:27:24;20.60;41.60
76936;DHT22;65881;52.438;16.744;2023-05-02T10:29:50;20.30;41.90
76936;DHT22;65881;52.438;16.744;2023-05-02T10:32:17;20.30;43.10
76936;DHT22;65881;52.438;16.744;2023-05-02T10:34:43;20.00;45.10
76936;DHT22;65881;52.438;16.744;2023-05-02T10:37:10;20.10;44.40
76936;DHT22;65881;52.438;16.744;2023-05-02T10:39:45;20.30;43.80
76936;DHT22;65881;52.438;16.744;2023-05-02T10:42:12;20.50;42.90
76936;DHT22;65881;52.438;16.744;2023-05-02T10:44:39;20.60;43.60
76936;DHT22;65881;52.438;16.744;2023-05-02T10:47:25;20.70;44.90
76936;DHT22;65881;52.438;16.744;2023-05-02T10:49:56;20.90;41.70
76936;DHT22;65881;52.438;16.744;2023-05-02T10:52:31;20.80;42.80
76936;DHT22;65881;52.438;16.744;2023-05-02T10:58:18;20.00;41.90
76936;DHT22;65881;52.438;16.744;2023-05-02T11:00:30;19.90;44.80
76936;DHT22;65881;52.438;16.744;2023-05-02T11:02:56;20.20;44.90
76936;DHT22;65881;52.438;16.744;2023-05-02T11:05:23;20.40;43.00
76936;DHT22;65881;52.438;16.744;2023-05-02T11:07:49;20.30;40.70
76936;DHT22;65881;52.438;16.744;2023-05-02T11:12:50;20.30;39.60
76936;DHT22;65881;52.438;16.744;2023-05-02T11:18:12;19.90;40.20
76936;DHT22;65881;52.438;16.744;2023-05-02T11:20:40;19.40;42.50
76936;DHT22;65881;52.438;16.744;2023-05-02T11:25:55;20.00;43.30
76936;DHT22;65881;52.438;16.744;2023-05-02T11:31:06;19.50;41.80
76936;DHT22;65881;52.438;16.744;2023-05-02T11:33:32;18.90;43.30
76936;DHT22;65881;52.438;16.744;2023-05-02T11:36:07;18.90;44.40
76936;DHT22;65881;52.438;16.744;2023-05-02T11:38:37;19.20;45.20
76936;DHT22;65881;52.438;16.744;2023-05-02T11:41:03;19.20;43.40
76936;DHT22;65881;52.438;16.744;2023-05-02T11:43:29;19.10;45.50
76936;DHT22;65881;52.438;16.744;2023-05-02T11:45:55;19.00;45.40
76936;DHT22;65881;52.438;16.744;2023-05-02T11:48:25;18.80;44.50
76936;DHT22;65881;52.438;16.744;2023-05-02T11:50:56;18.70;44.40
76936;DHT22;65881;52.438;16.744;2023-05-02T11:53:24;18.50;45.70
76936;DHT22;65881;52.438;16.744;2023-05-02T11:55:52;18.60;46.10
76936;DHT22;65881;52.438;16.744;2023-05-02T11:58:21;18.80;44.90
76936;DHT22;65881;52.438;16.744;2023-05-02T12:00:48;18.80;46.00
76936;DHT22;65881;52.438;16.744;2023-05-02T12:03:31;18.80;47.90
76936;DHT22;65881;52.438;16.744;2023-05-02T12:06:10;18.60;47.50
76936;DHT22;65881;52.438;16.744;2023-05-02T12:08:41;18.70;46.20
76936;DHT22;65881;52.438;16.744;2023-05-02T12:11:13;18.70;47.20
76936;DHT22;65881;52.438;16.744;2023-05-02T12:13:49;18.70;47.40
76936;DHT22;65881;52.438;16.744;2023-05-02T12:16:16;18.60;47.10
76936;DHT22;65881;52.438;16.744;2023-05-02T12:18:42;18.40;48.00
76936;DHT22;65881;52.438;16.744;2023-05-02T12:21:09;18.40;48.80
76936;DHT22;65881;52.438;16.744;2023-05-02T12:23:44;18.60;50.80
76936;DHT22;65881;52.438;16.744;2023-05-02T12:26:24;19.00;48.90
76936;DHT22;65881;52.438;16.744;2023-05-02T12:28:54;19.10;48.40
76936;DHT22;65881;52.438;16.744;2023-05-02T12:31:21;19.00;48.90
76936;DHT22;65881;52.438;16.744;2023-05-02T12:33:49;18.80;48.40
76936;DHT22;65881;52.438;16.744;2023-05-02T12:36:17;18.70;50.50
76936;DHT22;65881;52.438;16.744;2023-05-02T12:38:57;18.70;49.30
76936;DHT22;65881;52.438;16.744;2023-05-02T12:41:34;18.50;50.20
76936;DHT22;65881;52.438;16.744;2023-05-02T12:44:02;18.40;50.70
76936;DHT22;65881;52.438;16.744;2023-05-02T12:46:28;18.30;51.70
76936;DHT22;65881;52.438;16.744;2023-05-02T12:49:07;18.30;50.70
76936;DHT22;65881;52.438;16.744;2023-05-02T12:51:35;18.20;50.70
76936;DHT22;65881;52.438;16.744;2023-05-02T12:54:04;18.00;51.30
76936;DHT22;65881;52.438;16.744;2023-05-02T12:56:37;17.90;51.80
76936;DHT22;65881;52.438;16.744;2023-05-02T12:59:03;17.90;52.40
76936;DHT22;65881;52.438;16.744;2023-05-02T13:01:31;18.10;53.60
76936;DHT22;65881;52.438;16.744;2023-05-02T13:03:58;18.10;52.60
76936;DHT22;65881;52.438;16.744;2023-05-02T13:06:23;18.30;52.00
76936;DHT22;65881;52.438;16.744;2023-05-02T13:08:53;18.20;50.80
76936;DHT22;65881;52.438;16.744;2023-05-02T13:11:18;18.10;51.20
76936;DHT22;65881;52.438;16.744;2023-05-02T13:13:45;18.00;51.80
76936;DHT22;65881;52.438;16.744;2023-05-02T13:16:10;17.80;51.70
76936;DHT22;65881;52.438;16.744;2023-05-02T13:18:36;17.50;51.80
76936;DHT22;65881;52.438;16.744;2023-05-02T13:21:01;17.50;53.90
76936;DHT22;65881;52.438;16.744;2023-05-02T13:23:29;17.50;55.00
76936;DHT22;65881;52.438;16.744;2023-05-02T13:25:54;17.80;52.80
76936;DHT22;65881;52.438;16.744;2023-05-02T13:28:20;17.80;52.10
76936;DHT22;65881;52.438;16.744;2023-05-02T13:30:46;17.80;52.20
76936;DHT22;65881;52.438;16.744;2023-05-02T13:33:11;17.80;51.80
76936;DHT22;65881;52.438;16.744;2023-05-02T13:35:37;17.80;52.00
76936;DHT22;65881;52.438;16.744;2023-05-02T13:38:03;17.60;53.10
76936;DHT22;65881;52.438;16.744;2023-05-02T13:40:28;17.60;51.40
76936;DHT22;65881;52.438;16.744;2023-05-02T13:42:54;17.70;51.10
76936;DHT22;65881;52.438;16.744;2023-05-02T13:45:20;17.60;50.20
76936;DHT22;65881;52.438;16.744;2023-05-02T13:47:45;17.40;51.70
76936;DHT22;65881;52.438;16.744;2023-05-02T13:50:11;16.90;51.60
76936;DHT22;65881;52.438;16.744;2023-05-02T13:52:37;16.60;52.10
76936;DHT22;65881;52.438;16.744;2023-05-02T13:55:02;16.40;53.30
76936;DHT22;65881;52.438;16.744;2023-05-02T13:57:29;16.30;54.40
76936;DHT22;65881;52.438;16.744;2023-05-02T13:59:54;16.50;53.80
76936;DHT22;65881;52.438;16.744;2023-05-02T14:02:20;16.50;54.10
76936;DHT22;65881;52.438;16.744;2023-05-02T14:04:46;16.40;53.50
76936;DHT22;65881;52.438;16.744;2023-05-02T14:07:12;16.20;54.50
76936;DHT22;65881;52.438;16.744;2023-05-02T14:09:38;16.20;54.00
76936;DHT22;65881;52.438;16.744;2023-05-02T14:12:03;16.00;54.30
76936;DHT22;65881;52.438;16.744;2023-05-02T14:14:29;16.10;53.70
76936;DHT22;65881;52.438;16.744;2023-05-02T14:16:55;16.00;53.70
76936;DHT22;65881;52.438;16.744;2023-05-02T14:19:20;16.00;53.60
76936;DHT22;65881;52.438;16.744;2023-05-02T14:21:46;15.90;54.10
76936;DHT22;65881;52.438;16.744;2023-05-02T14:24:12;15.90;54.60
76936;DHT22;65881;52.438;16.744;2023-05-02T14:26:39;15.90;54.20
76936;DHT22;65881;52.438;16.744;2023-05-02T14:29:05;16.00;54.70
76936;DHT22;65881;52.438;16.744;2023-05-02T14:31:30;16.10;54.30
76936;DHT22;65881;52.438;16.744;2023-05-02T14:33:56;16.10;54.40
76936;DHT22;65881;52.438;16.744;2023-05-02T14:36:22;16.00;54.30
76936;DHT22;65881;52.438;16.744;2023-05-02T14:38:47;16.10;53.90
76936;DHT22;65881;52.438;16.744;2023-05-02T14:41:13;16.20;53.70
76936;DHT22;65881;52.438;16.744;2023-05-02T14:43:39;16.00;53.60
76936;DHT22;65881;52.438;16.744;2023-05-02T14:46:04;16.00;53.10
76936;DHT22;65881;52.438;16.744;2023-05-02T14:48:30;16.00;53.90
76936;DHT22;65881;52.438;16.744;2023-05-02T14:51:02;16.00;52.90
76936;DHT22;65881;52.438;16.744;2023-05-02T14:53:28;16.10;53.30
76936;DHT22;65881;52.438;16.744;2023-05-02T14:55:54;16.10;52.70
76936;DHT22;65881;52.438;16.744;2023-05-02T14:58:19;16.20;52.60
76936;DHT22;65881;52.438;16.744;2023-05-02T15:00:45;16.00;53.90
76936;DHT22;65881;52.438;16.744;2023-05-02T15:03:12;16.00;55.90
76936;DHT22;65881;52.438;16.744;2023-05-02T15:05:38;16.00;55.70
76936;DHT22;65881;52.438;16.744;2023-05-02T15:08:04;16.00;55.10
76936;DHT22;65881;52.438;16.744;2023-05-02T15:10:37;15.80;55.40
76936;DHT22;65881;52.438;16.744;2023-05-02T15:13:02;15.90;56.00
76936;DHT22;65881;52.438;16.744;2023-05-02T15:15:29;16.00;55.30
76936;DHT22;65881;52.438;16.744;2023-05-02T15:17:54;16.00;54.60
76936;DHT22;65881;52.438;16.744;2023-05-02T15:20:21;15.80;55.00
76936;DHT22;65881;52.438;16.744;2023-05-02T15:22:46;15.80;55.30
76936;DHT22;65881;52.438;16.744;2023-05-02T15:25:12;15.80;55.30
76936;DHT22;65881;52.438;16.744;2023-05-02T15:27:38;15.80;56.00
76936;DHT22;65881;52.438;16.744;2023-05-02T15:30:05;15.60;55.20
76936;DHT22;65881;52.438;16.744;2023-05-02T15:32:31;15.50;55.40
76936;DHT22;65881;52.438;16.744;2023-05-02T15:34:57;15.40;55.10
76936;DHT22;65881;52.438;16.744;2023-05-02T15:37:23;15.20;55.70
76936;DHT22;65881;52.438;16.744;2023-05-02T15:39:48;15.20;56.00
76936;DHT22;65881;52.438;16.744;2023-05-02T15:42:15;15.20;56.30
76936;DHT22;65881;52.438;16.744;2023-05-02T15:44:40;15.20;55.70
76936;DHT22;65881;52.438;16.744;2023-05-02T15:47:06;15.00;56.20
76936;DHT22;65881;52.438;16.744;2023-05-02T15:49:32;15.00;56.00
76936;DHT22;65881;52.438;16.744;2023-05-02T15:51:59;14.90;56.40
76936;DHT22;65881;52.438;16.744;2023-05-02T15:54:25;14.90;56.50
76936;DHT22;65881;52.438;16.744;2023-05-02T15:56:51;14.80;56.60
76936;DHT22;65881;52.438;16.744;2023-05-02T15:59:17;14.80;57.30